createdAt,value
2017-12-13T00:00:36.128Z,3.67
2017-12-13T00:03:04.373Z,4.50
2017-12-13T00:05:32.892Z,4.87
2017-12-13T00:08:01.147Z,4.63
2017-12-13T00:10:29.384Z,4.67
2017-12-13T00:12:58.021Z,4.10
2017-12-13T00:15:26.293Z,4.87
2017-12-13T00:17:54.520Z,5.87
2017-12-13T00:20:22.760Z,3.67
2017-12-13T00:22:51.024Z,3.00
2017-12-13T00:25:19.259Z,4.87
2017-12-13T00:27:48.251Z,3.50
2017-12-13T00:30:16.526Z,2.87
2017-12-13T00:32:44.756Z,3.80
2017-12-13T00:35:12.987Z,4.63
2017-12-13T00:37:41.279Z,3.57
2017-12-13T00:40:09.513Z,3.67
2017-12-13T00:42:38.160Z,2.77
2017-12-13T00:45:06.459Z,2.73
2017-12-13T00:47:35.083Z,2.80
2017-12-13T00:50:04.751Z,2.67
2017-12-13T00:52:34.122Z,3.73
2017-12-13T00:55:02.772Z,3.07
2017-12-13T00:57:31.011Z,2.60
2017-12-13T00:59:59.269Z,3.00
2017-12-13T01:02:27.512Z,2.83
2017-12-13T01:04:55.833Z,2.60
2017-12-13T01:07:24.967Z,3.53
2017-12-13T01:09:54.656Z,2.50
2017-12-13T01:12:23.299Z,3.00
2017-12-13T01:14:51.592Z,3.57
2017-12-13T01:17:19.831Z,3.90
2017-12-13T01:19:48.922Z,2.90
2017-12-13T01:22:17.240Z,2.70
2017-12-13T01:24:45.471Z,3.50
2017-12-13T01:27:13.704Z,3.00
2017-12-13T01:29:42.719Z,3.37
2017-12-13T01:32:11.356Z,3.20
2017-12-13T01:34:40.355Z,3.37
2017-12-13T01:37:09.019Z,3.20
2017-12-13T01:39:37.320Z,3.60
2017-12-13T01:42:05.544Z,3.93
2017-12-13T01:44:33.954Z,3.40
2017-12-13T01:47:02.180Z,2.53
2017-12-13T01:49:30.807Z,3.50
2017-12-13T01:51:59.091Z,6.10
2017-12-13T01:54:27.329Z,3.13
2017-12-13T01:56:55.569Z,3.23
2017-12-13T01:59:23.822Z,3.63
2017-12-13T02:01:52.048Z,3.20
2017-12-13T02:04:20.682Z,3.87
2017-12-13T02:06:48.936Z,3.00
2017-12-13T02:09:17.171Z,3.20
2017-12-13T02:11:45.813Z,3.10
2017-12-13T02:14:14.493Z,3.50
2017-12-13T02:16:42.723Z,4.07
2017-12-13T02:19:10.964Z,3.30
2017-12-13T02:21:39.548Z,2.70
2017-12-13T02:24:07.779Z,4.03
2017-12-13T02:26:36.013Z,4.43
2017-12-13T02:29:04.275Z,5.03
2017-12-13T02:31:32.505Z,2.63
2017-12-13T02:34:00.741Z,3.13
2017-12-13T02:36:29.985Z,3.60
2017-12-13T02:38:58.500Z,4.47
2017-12-13T02:41:26.747Z,3.80
2017-12-13T02:43:55.011Z,3.70
2017-12-13T02:46:23.249Z,3.50
2017-12-13T02:48:51.880Z,2.63
2017-12-13T02:51:20.160Z,4.43
2017-12-13T02:53:48.382Z,3.97
2017-12-13T02:56:16.619Z,3.67
2017-12-13T02:58:44.873Z,3.97
2017-12-13T03:01:13.103Z,3.50
2017-12-13T03:03:41.340Z,3.10
2017-12-13T03:06:09.620Z,3.80
2017-12-13T03:08:37.852Z,4.73
2017-12-13T03:11:06.490Z,6.40
2017-12-13T03:13:34.734Z,3.73
2017-12-13T03:16:03.205Z,3.90
2017-12-13T03:18:31.446Z,4.10
2017-12-13T03:21:01.345Z,3.67
2017-12-13T03:23:29.587Z,3.50
2017-12-13T03:25:57.827Z,3.37
2017-12-13T03:28:26.487Z,3.83
2017-12-13T03:30:55.881Z,4.30
2017-12-13T03:33:24.115Z,4.47
2017-12-13T03:35:52.372Z,5.33
2017-12-13T03:38:20.608Z,4.03
2017-12-13T03:40:48.854Z,5.30
2017-12-13T03:43:17.093Z,4.83
2017-12-13T03:45:45.716Z,3.83
2017-12-13T03:48:14.223Z,3.80
2017-12-13T03:50:42.488Z,3.70
2017-12-13T03:53:10.768Z,4.70
2017-12-13T03:55:38.984Z,5.30
2017-12-13T03:58:07.939Z,5.43
2017-12-13T04:00:36.212Z,4.60
2017-12-13T04:03:04.451Z,5.13
2017-12-13T04:05:32.707Z,7.83
2017-12-13T04:08:01.344Z,5.13
2017-12-13T04:10:29.580Z,4.27
2017-12-13T04:12:57.872Z,4.20
2017-12-13T04:15:26.096Z,5.10
2017-12-13T04:17:54.326Z,3.73
2017-12-13T04:20:22.685Z,3.50
2017-12-13T04:22:50.928Z,4.20
2017-12-13T04:25:19.158Z,5.57
2017-12-13T04:27:47.419Z,4.47
2017-12-13T04:30:15.664Z,3.63
2017-12-13T04:32:44.404Z,4.30
2017-12-13T04:35:12.668Z,3.93
2017-12-13T04:37:40.903Z,4.10
2017-12-13T04:40:09.528Z,4.90
2017-12-13T04:42:37.800Z,4.33
2017-12-13T04:45:06.049Z,5.27
2017-12-13T04:47:34.286Z,3.77
2017-12-13T04:50:02.532Z,3.33
2017-12-13T04:52:30.827Z,4.17
2017-12-13T04:54:59.314Z,3.17
2017-12-13T04:57:27.559Z,3.70
2017-12-13T04:59:55.840Z,3.37
2017-12-13T05:02:25.080Z,3.50
2017-12-13T05:04:53.315Z,3.20
2017-12-13T05:07:21.590Z,2.60
2017-12-13T05:09:49.828Z,4.13
2017-12-13T05:12:18.451Z,3.40
2017-12-13T05:14:46.728Z,3.07
2017-12-13T05:17:14.964Z,3.23
2017-12-13T05:19:43.595Z,3.73
2017-12-13T05:22:12.704Z,5.87
2017-12-13T05:24:41.377Z,3.00
2017-12-13T05:27:09.872Z,3.30
2017-12-13T05:29:38.150Z,3.90
2017-12-13T05:32:06.400Z,3.47
2017-12-13T05:34:34.633Z,3.47
2017-12-13T05:37:02.951Z,3.20
2017-12-13T05:39:31.228Z,4.53
2017-12-13T05:41:59.467Z,3.33
2017-12-13T05:44:27.729Z,3.37
2017-12-13T05:46:56.354Z,3.30
2017-12-13T05:49:24.600Z,5.00
2017-12-13T05:51:53.258Z,3.27
2017-12-13T05:54:21.497Z,3.60
2017-12-13T05:56:49.803Z,3.30
2017-12-13T05:59:18.542Z,3.13
2017-12-13T06:01:46.776Z,3.80
2017-12-13T06:04:16.600Z,3.67
2017-12-13T06:06:45.234Z,4.27
2017-12-13T06:09:13.468Z,3.50
2017-12-13T06:11:42.133Z,4.17
2017-12-13T06:14:10.402Z,2.93
2017-12-13T06:16:38.625Z,4.30
2017-12-13T06:19:06.898Z,3.50
2017-12-13T06:21:35.127Z,3.00
2017-12-13T06:24:03.426Z,3.27
2017-12-13T06:26:32.072Z,3.80
2017-12-13T06:29:00.308Z,3.77
2017-12-13T06:31:28.548Z,3.30
2017-12-13T06:33:56.820Z,5.73
2017-12-13T06:36:25.060Z,3.47
2017-12-13T06:38:53.305Z,4.43
2017-12-13T06:41:21.840Z,3.33
2017-12-13T06:43:50.083Z,4.30
2017-12-13T06:46:18.346Z,3.80
2017-12-13T06:48:46.612Z,3.90
2017-12-13T06:51:14.860Z,3.90
2017-12-13T06:53:43.085Z,5.70
2017-12-13T06:56:11.343Z,5.30
2017-12-13T06:58:39.580Z,5.00
2017-12-13T07:01:07.864Z,4.90
2017-12-13T07:03:36.540Z,4.23
2017-12-13T07:06:04.777Z,5.73
2017-12-13T07:08:33.022Z,4.80
2017-12-13T07:11:01.701Z,6.37
2017-12-13T07:13:30.372Z,5.27
2017-12-13T07:15:59.020Z,5.50
2017-12-13T07:18:27.269Z,14.37
2017-12-13T07:20:55.508Z,17.80
2017-12-13T07:23:23.771Z,15.80
2017-12-13T07:25:52.052Z,10.70
2017-12-13T07:28:20.283Z,10.70
2017-12-13T07:30:48.516Z,14.70
2017-12-13T07:33:16.828Z,10.13
2017-12-13T07:35:45.068Z,10.73
2017-12-13T07:38:13.880Z,8.30
2017-12-13T07:40:42.171Z,13.50
2017-12-13T07:43:10.593Z,7.73
2017-12-13T07:45:38.868Z,7.33
2017-12-13T07:48:07.111Z,9.07
2017-12-13T07:50:35.392Z,7.87
2017-12-13T07:53:03.701Z,7.50
2017-12-13T07:55:32.005Z,6.97
2017-12-13T07:58:00.625Z,6.50
2017-12-13T08:00:28.887Z,5.60
2017-12-13T08:02:57.155Z,6.30
2017-12-13T08:05:25.400Z,6.83
2017-12-13T08:07:54.069Z,5.30
2017-12-13T08:10:22.304Z,8.00
2017-12-13T08:12:50.540Z,5.40
2017-12-13T08:15:20.528Z,4.90
2017-12-13T08:17:48.764Z,4.93
2017-12-13T08:20:17.049Z,5.33
2017-12-13T08:22:45.288Z,5.33
2017-12-13T08:25:13.933Z,5.73
2017-12-13T08:27:42.242Z,4.37
2017-12-13T08:30:10.876Z,5.73
2017-12-13T08:32:39.115Z,4.00
2017-12-13T08:35:07.776Z,6.47
2017-12-13T08:37:36.011Z,4.20
2017-12-13T08:40:04.296Z,5.23
2017-12-13T08:42:32.565Z,4.40
2017-12-13T08:45:00.798Z,3.60
2017-12-13T08:47:29.432Z,4.00
2017-12-13T08:49:57.676Z,3.87
2017-12-13T08:52:25.913Z,5.37
2017-12-13T08:54:54.564Z,4.43
2017-12-13T08:57:23.160Z,3.60
2017-12-13T08:59:51.385Z,3.93
2017-12-13T09:02:20.025Z,4.37
2017-12-13T09:04:48.660Z,3.20
2017-12-13T09:07:17.308Z,3.00
2017-12-13T09:09:46.360Z,4.73
2017-12-13T09:12:14.657Z,3.33
2017-12-13T09:14:43.816Z,2.93
2017-12-13T09:17:12.092Z,4.80
2017-12-13T09:19:40.332Z,3.57
2017-12-13T09:22:08.580Z,3.43
2017-12-13T09:24:36.864Z,5.60
2017-12-13T09:27:05.303Z,4.40
2017-12-13T09:29:33.533Z,2.80
2017-12-13T09:32:01.777Z,3.20
2017-12-13T09:34:30.012Z,3.73
2017-12-13T09:36:58.249Z,2.30
2017-12-13T09:39:26.497Z,2.90
2017-12-13T09:41:54.741Z,2.80
2017-12-13T09:44:22.993Z,2.87
2017-12-13T09:46:51.425Z,2.90
2017-12-13T09:49:19.668Z,2.67
2017-12-13T09:51:48.297Z,3.53
2017-12-13T09:54:16.682Z,2.20
2017-12-13T09:56:44.959Z,2.60
2017-12-13T09:59:13.181Z,2.30
2017-12-13T10:01:41.457Z,2.33
2017-12-13T10:04:09.692Z,2.17
2017-12-13T10:06:38.536Z,1.93
2017-12-13T10:09:06.808Z,2.23
2017-12-13T10:11:35.047Z,1.90
2017-12-13T10:14:03.895Z,2.20
2017-12-13T10:16:32.192Z,2.47
2017-12-13T10:19:00.442Z,1.90
2017-12-13T10:21:28.674Z,3.13
2017-12-13T10:23:57.476Z,2.70
2017-12-13T10:26:26.682Z,1.83
2017-12-13T10:28:54.932Z,1.67
2017-12-13T10:31:23.282Z,2.27
2017-12-13T10:33:51.513Z,2.50
2017-12-13T10:36:20.043Z,1.77
2017-12-13T10:38:48.525Z,1.70
2017-12-13T10:41:16.761Z,6.70
2017-12-13T10:43:45.031Z,1.90
2017-12-13T10:46:13.260Z,1.90
2017-12-13T10:48:41.498Z,3.37
2017-12-13T10:51:09.764Z,2.83
2017-12-13T10:53:38.007Z,2.50
2017-12-13T10:56:06.650Z,2.53
2017-12-13T10:58:35.969Z,3.37
2017-12-13T11:01:04.204Z,2.23
2017-12-13T11:03:32.440Z,2.10
2017-12-13T11:06:01.112Z,2.13
2017-12-13T11:08:29.752Z,2.97
2017-12-13T11:10:57.988Z,1.60
2017-12-13T11:13:26.628Z,1.87
2017-12-13T11:15:55.321Z,1.73
2017-12-13T11:18:23.567Z,2.17
2017-12-13T11:20:51.797Z,2.03
2017-12-13T11:23:20.260Z,2.87
2017-12-13T11:25:48.630Z,1.57
2017-12-13T11:28:16.849Z,1.93
2017-12-13T11:30:45.478Z,1.70
2017-12-13T11:33:13.753Z,1.83
2017-12-13T11:35:42.016Z,1.43
2017-12-13T11:38:10.319Z,1.57
2017-12-13T11:40:38.551Z,2.70
2017-12-13T11:43:06.802Z,1.77
2017-12-13T11:45:35.440Z,2.23
2017-12-13T11:48:03.733Z,1.73
2017-12-13T11:50:31.960Z,1.93
2017-12-13T11:53:00.204Z,1.67
2017-12-13T11:55:28.458Z,2.80
2017-12-13T11:57:57.158Z,1.93
2017-12-13T12:00:26.132Z,1.90
2017-12-13T12:02:54.380Z,2.00
2017-12-13T12:05:22.655Z,1.70
2017-12-13T12:07:51.741Z,1.60
2017-12-13T12:10:19.983Z,1.73
2017-12-13T12:12:49.253Z,2.00
2017-12-13T12:15:17.544Z,2.13
2017-12-13T12:17:46.209Z,2.03
2017-12-13T12:20:14.461Z,1.60
2017-12-13T12:22:42.749Z,2.07
2017-12-13T12:25:13.147Z,2.43
2017-12-13T12:27:42.098Z,2.33
2017-12-13T12:30:11.323Z,4.00
2017-12-13T12:32:39.906Z,2.43
2017-12-13T12:35:09.277Z,3.13
2017-12-13T12:37:37.532Z,3.47
2017-12-13T12:40:05.759Z,2.33
2017-12-13T12:42:34.023Z,2.10
2017-12-13T12:45:02.255Z,1.87
2017-12-13T12:47:30.492Z,2.10
2017-12-13T12:49:59.235Z,1.50
2017-12-13T12:52:27.447Z,1.67
2017-12-13T12:54:56.139Z,3.23
2017-12-13T12:57:24.381Z,6.10
2017-12-13T12:59:52.629Z,1.63
2017-12-13T13:02:20.892Z,2.23
2017-12-13T13:04:50.127Z,3.10
2017-12-13T13:07:18.373Z,1.93
2017-12-13T13:09:46.650Z,4.23
2017-12-13T13:12:14.923Z,2.20
2017-12-13T13:14:43.857Z,2.20
2017-12-13T13:17:12.572Z,1.93
2017-12-13T13:19:40.808Z,1.77
2017-12-13T13:22:09.040Z,2.13
2017-12-13T13:24:37.296Z,2.10
2017-12-13T13:27:05.913Z,2.30
2017-12-13T13:29:34.157Z,3.23
2017-12-13T13:32:02.812Z,3.03
2017-12-13T13:34:31.066Z,2.10
2017-12-13T13:36:59.303Z,2.20
2017-12-13T13:39:27.563Z,2.57
2017-12-13T13:41:56.187Z,2.97
2017-12-13T13:44:24.417Z,7.00
2017-12-13T13:46:53.064Z,2.10
2017-12-13T13:49:21.303Z,2.10
2017-12-13T13:51:51.097Z,2.17
2017-12-13T13:54:19.727Z,3.83
2017-12-13T13:56:47.980Z,3.60
2017-12-13T13:59:16.256Z,2.40
2017-12-13T14:01:44.497Z,3.47
2017-12-13T14:04:14.117Z,2.23
2017-12-13T14:06:42.791Z,3.20
2017-12-13T14:09:11.424Z,2.30
2017-12-13T14:11:39.661Z,2.37
2017-12-13T14:14:08.399Z,3.10
2017-12-13T14:16:36.621Z,3.27
2017-12-13T14:19:04.876Z,2.00
2017-12-13T14:21:33.157Z,2.80
2017-12-13T14:24:01.787Z,1.90
2017-12-13T14:26:30.024Z,2.60
2017-12-13T14:28:58.672Z,1.90
2017-12-13T14:31:26.924Z,2.10
2017-12-13T14:33:55.156Z,2.63
2017-12-13T14:36:23.821Z,2.90
2017-12-13T14:38:52.058Z,2.90
2017-12-13T14:41:20.307Z,2.40
2017-12-13T14:43:48.541Z,4.63
2017-12-13T14:46:16.781Z,3.27
2017-12-13T14:48:45.074Z,2.03
2017-12-13T14:51:13.329Z,2.07
2017-12-13T14:53:41.571Z,2.30
2017-12-13T14:56:10.232Z,2.20
2017-12-13T14:58:38.480Z,1.67
2017-12-13T15:01:06.769Z,1.70
2017-12-13T15:03:35.041Z,2.57
2017-12-13T15:06:03.332Z,2.43
2017-12-13T15:08:31.580Z,3.37
2017-12-13T15:10:59.827Z,2.37
2017-12-13T15:13:28.101Z,1.60
2017-12-13T15:15:56.436Z,2.50
2017-12-13T15:18:24.917Z,1.70
2017-12-13T15:20:53.182Z,2.20
2017-12-13T15:23:21.448Z,1.77
2017-12-13T15:25:49.954Z,2.70
2017-12-13T15:28:18.229Z,2.53
2017-12-13T15:30:46.500Z,1.43
2017-12-13T15:33:14.742Z,3.53
2017-12-13T15:35:42.998Z,3.40
2017-12-13T15:38:11.651Z,2.07
2017-12-13T15:40:39.941Z,2.43
2017-12-13T15:43:08.169Z,2.77
2017-12-13T15:45:36.465Z,1.90
2017-12-13T15:48:04.708Z,2.57
2017-12-13T15:50:32.980Z,2.63
2017-12-13T15:53:01.274Z,2.30
2017-12-13T15:55:29.559Z,1.90
2017-12-13T15:57:57.804Z,1.73
2017-12-13T16:00:26.087Z,4.03
2017-12-13T16:02:54.402Z,3.67
2017-12-13T16:05:22.654Z,2.10
2017-12-13T16:07:50.913Z,1.70
2017-12-13T16:10:19.232Z,2.37
2017-12-13T16:12:47.723Z,2.90
2017-12-13T16:15:18.947Z,1.63
2017-12-13T16:17:47.540Z,2.37
2017-12-13T16:20:16.022Z,1.87
2017-12-13T16:22:44.270Z,1.60
2017-12-13T16:25:12.588Z,2.70
2017-12-13T16:27:40.839Z,3.50
2017-12-13T16:30:10.144Z,2.40
2017-12-13T16:32:38.390Z,2.10
2017-12-13T16:35:06.620Z,1.93
2017-12-13T16:37:35.262Z,2.40
2017-12-13T16:40:03.533Z,2.00
2017-12-13T16:42:31.802Z,2.37
2017-12-13T16:45:00.073Z,1.90
2017-12-13T16:47:28.312Z,1.83
2017-12-13T16:49:56.608Z,1.97
2017-12-13T16:52:24.848Z,2.00
2017-12-13T16:54:53.098Z,2.30
2017-12-13T16:57:21.361Z,1.73
2017-12-13T16:59:50.428Z,2.87
2017-12-13T17:02:18.710Z,3.50
2017-12-13T17:04:46.948Z,1.90
2017-12-13T17:07:15.300Z,2.30
2017-12-13T17:09:43.549Z,3.00
2017-12-13T17:12:11.787Z,2.67
2017-12-13T17:14:40.423Z,2.50
2017-12-13T17:17:08.689Z,2.50
2017-12-13T17:19:36.926Z,2.17
2017-12-13T17:22:05.552Z,2.43
2017-12-13T17:24:33.817Z,3.80
2017-12-13T17:27:02.068Z,2.70
2017-12-13T17:29:30.924Z,2.33
2017-12-13T17:31:59.165Z,2.60
2017-12-13T17:34:27.419Z,2.43
2017-12-13T17:36:55.666Z,2.33
2017-12-13T17:39:23.912Z,2.73
2017-12-13T17:41:52.152Z,3.70
2017-12-13T17:44:20.397Z,2.60
2017-12-13T17:46:49.034Z,3.10
2017-12-13T17:49:17.317Z,4.93
2017-12-13T17:51:45.548Z,3.20
2017-12-13T17:54:14.297Z,2.40
2017-12-13T17:56:42.567Z,3.50
2017-12-13T17:59:10.944Z,3.57
2017-12-13T18:01:39.164Z,2.60
2017-12-13T18:04:07.423Z,3.40
2017-12-13T18:06:36.077Z,2.70
2017-12-13T18:09:05.392Z,2.43
2017-12-13T18:11:33.663Z,2.70
2017-12-13T18:14:02.140Z,3.23
2017-12-13T18:16:30.409Z,2.30
2017-12-13T18:18:58.700Z,2.30
2017-12-13T18:21:27.348Z,2.97
2017-12-13T18:23:55.580Z,3.17
2017-12-13T18:26:24.313Z,3.10
2017-12-13T18:28:52.524Z,3.50
2017-12-13T18:31:20.760Z,2.40
2017-12-13T18:33:49.003Z,2.90
2017-12-13T18:36:17.249Z,2.80
2017-12-13T18:38:46.231Z,2.60
2017-12-13T18:41:14.532Z,3.80
2017-12-13T18:43:43.191Z,2.73
2017-12-13T18:46:11.438Z,2.97
2017-12-13T18:48:39.753Z,3.10
2017-12-13T18:51:08.014Z,2.77
2017-12-13T18:53:36.256Z,4.20
2017-12-13T18:56:04.509Z,3.60
2017-12-13T18:58:33.140Z,2.43
2017-12-13T19:01:01.383Z,2.30
2017-12-13T19:03:29.636Z,3.47
2017-12-13T19:05:58.268Z,3.00
2017-12-13T19:08:26.504Z,2.07
2017-12-13T19:10:56.036Z,4.17
2017-12-13T19:13:24.755Z,2.50
2017-12-13T19:15:53.035Z,2.40
2017-12-13T19:18:21.732Z,2.43
2017-12-13T19:20:49.982Z,3.43
2017-12-13T19:23:18.276Z,2.20
2017-12-13T19:25:46.520Z,2.90
2017-12-13T19:28:14.769Z,3.13
2017-12-13T19:30:43.030Z,3.40
2017-12-13T19:33:11.660Z,4.00
2017-12-13T19:35:39.901Z,2.97
2017-12-13T19:38:08.180Z,2.30
2017-12-13T19:40:36.421Z,2.40
2017-12-13T19:46:09.588Z,2.23
2017-12-13T19:48:38.524Z,2.30
2017-12-13T19:51:06.760Z,2.20
2017-12-13T19:53:35.161Z,2.77
2017-12-13T19:56:03.526Z,3.33
2017-12-13T19:58:31.760Z,3.00
2017-12-13T20:01:00.012Z,2.60
2017-12-13T20:03:28.674Z,1.83
2017-12-13T20:05:56.908Z,2.20
2017-12-13T20:08:25.761Z,3.70
2017-12-13T20:10:54.114Z,2.53
2017-12-13T20:13:22.368Z,2.43
2017-12-13T20:15:50.631Z,2.10
2017-12-13T20:18:18.960Z,2.80
2017-12-13T20:20:47.320Z,2.40
2017-12-13T20:23:15.553Z,1.93
2017-12-13T20:25:43.843Z,2.20
2017-12-13T20:28:12.084Z,1.77
2017-12-13T20:30:40.735Z,2.53
2017-12-13T20:33:09.392Z,2.30
2017-12-13T20:35:37.650Z,2.63
2017-12-13T20:38:05.917Z,2.17
2017-12-13T20:40:35.001Z,2.67
2017-12-13T20:43:03.280Z,2.77
2017-12-13T20:45:32.899Z,2.27
2017-12-13T20:48:03.088Z,2.03
2017-12-13T20:50:34.401Z,2.40
2017-12-13T20:53:04.406Z,2.10
2017-12-13T20:55:33.178Z,1.87
2017-12-13T20:58:02.706Z,2.07
2017-12-13T21:00:32.492Z,2.00
2017-12-13T21:03:01.453Z,2.83
2017-12-13T21:05:31.379Z,2.90
2017-12-13T21:08:01.756Z,2.27
2017-12-13T21:10:30.400Z,2.23
2017-12-13T21:13:00.280Z,2.07
2017-12-13T21:15:30.280Z,2.30
2017-12-13T21:18:00.425Z,2.00
2017-12-13T21:20:30.277Z,2.17
2017-12-13T21:23:00.780Z,2.37
2017-12-13T21:25:30.879Z,1.70
2017-12-13T21:28:00.434Z,2.40
2017-12-13T21:30:30.987Z,2.60
2017-12-13T21:33:02.659Z,2.30
2017-12-13T21:35:32.633Z,2.60
2017-12-13T21:38:01.982Z,1.90
2017-12-13T21:40:31.595Z,1.80
2017-12-13T21:43:01.765Z,2.13
2017-12-13T21:45:30.615Z,1.90
2017-12-13T21:48:00.908Z,2.23
2017-12-13T21:50:29.922Z,1.80
2017-12-13T21:52:58.526Z,2.00
2017-12-13T21:55:28.437Z,2.03
2017-12-13T21:57:57.834Z,2.20
2017-12-13T22:00:28.784Z,1.87
2017-12-13T22:02:58.264Z,2.10
2017-12-13T22:05:28.045Z,2.00
2017-12-13T22:07:58.308Z,1.93
2017-12-13T22:10:28.330Z,2.30
2017-12-13T22:12:57.285Z,2.57
2017-12-13T22:15:28.168Z,2.47
2017-12-13T22:17:58.594Z,2.37
2017-12-13T22:20:29.198Z,1.87
2017-12-13T22:22:59.633Z,1.97
2017-12-13T22:25:29.068Z,1.60
2017-12-13T22:27:57.461Z,2.17
2017-12-13T22:30:27.185Z,3.20
2017-12-13T22:32:57.233Z,5.20
2017-12-13T22:35:26.907Z,3.70
2017-12-13T22:37:58.315Z,3.83
2017-12-13T22:40:28.370Z,4.63
2017-12-13T22:42:57.803Z,3.13
2017-12-13T22:45:28.031Z,6.03
2017-12-13T22:47:58.470Z,2.60
2017-12-13T22:50:28.422Z,3.93
2017-12-13T22:52:58.663Z,4.73
2017-12-13T22:55:27.134Z,5.53
2017-12-13T22:57:57.714Z,3.33
2017-12-13T23:00:39.491Z,4.10
2017-12-13T23:03:09.337Z,3.10
2017-12-13T23:05:39.392Z,2.20
2017-12-13T23:08:09.712Z,3.00
2017-12-13T23:10:40.182Z,2.63
2017-12-13T23:13:09.987Z,2.00
2017-12-13T23:15:41.053Z,3.00
2017-12-13T23:18:11.851Z,8.27
2017-12-13T23:20:41.100Z,9.27
2017-12-13T23:23:11.328Z,13.63
2017-12-13T23:25:40.451Z,8.87
2017-12-13T23:28:10.658Z,10.80
2017-12-13T23:30:39.287Z,6.53
2017-12-13T23:33:08.330Z,5.90
2017-12-13T23:35:37.274Z,6.80
2017-12-13T23:38:06.918Z,7.40
2017-12-13T23:40:36.302Z,7.47
2017-12-13T23:43:05.483Z,7.40
2017-12-13T23:45:34.628Z,5.47
2017-12-13T23:48:03.683Z,7.57
2017-12-13T23:50:32.727Z,5.27
2017-12-13T23:53:02.071Z,7.27
2017-12-13T23:55:30.932Z,4.13
2017-12-13T23:57:59.951Z,6.57
